sensor_id;sensor_type;location;lat;lon;timestamp;P1;durP1;ratioP1;P2;durP2;ratioP2
60999;SDS011;46879;45.658;11.814;2023-05-10T00:02:09;6.15;;;2.63;;
60999;SDS011;46879;45.658;11.814;2023-05-10T00:07:10;3.65;;;2.53;;
60999;SDS011;46879;45.658;11.814;2023-05-10T00:12:10;2.60;;;2.40;;
60999;SDS011;46879;45.658;11.814;2023-05-10T00:17:11;8.00;;;2.42;;
60999;SDS011;46879;45.658;11.814;2023-05-10T00:22:11;8.23;;;2.53;;
60999;SDS011;46879;45.658;11.814;2023-05-10T00:27:12;5.13;;;2.08;;
60999;SDS011;46879;45.658;11.814;2023-05-10T00:32:12;4.80;;;2.30;;
60999;SDS011;46879;45.658;11.814;2023-05-10T00:37:13;5.00;;;2.50;;
60999;SDS011;46879;45.658;11.814;2023-05-10T00:42:14;2.50;;;2.28;;
60999;SDS011;46879;45.658;11.814;2023-05-10T00:47:15;3.58;;;2.17;;
60999;SDS011;46879;45.658;11.814;2023-05-10T00:52:17;3.63;;;2.00;;
60999;SDS011;46879;45.658;11.814;2023-05-10T00:57:17;2.47;;;2.00;;
60999;SDS011;46879;45.658;11.814;2023-05-10T01:02:18;3.72;;;2.17;;
60999;SDS011;46879;45.658;11.814;2023-05-10T01:07:18;4.55;;;2.38;;
60999;SDS011;46879;45.658;11.814;2023-05-10T01:12:19;3.92;;;2.03;;
60999;SDS011;46879;45.658;11.814;2023-05-10T01:17:20;2.20;;;2.00;;
60999;SDS011;46879;45.658;11.814;2023-05-10T01:22:49;2.85;;;2.10;;
60999;SDS011;46879;45.658;11.814;2023-05-10T01:33:15;2.63;;;1.77;;
60999;SDS011;46879;45.658;11.814;2023-05-10T01:38:50;2.80;;;1.90;;
60999;SDS011;46879;45.658;11.814;2023-05-10T01:44:34;2.60;;;2.05;;
60999;SDS011;46879;45.658;11.814;2023-05-10T01:49:32;3.20;;;1.90;;
60999;SDS011;46879;45.658;11.814;2023-05-10T01:54:38;5.25;;;2.20;;
60999;SDS011;46879;45.658;11.814;2023-05-10T01:59:49;2.88;;;2.45;;
60999;SDS011;46879;45.658;11.814;2023-05-10T02:04:51;1.92;;;1.73;;
60999;SDS011;46879;45.658;11.814;2023-05-10T02:09:54;2.25;;;2.00;;
60999;SDS011;46879;45.658;11.814;2023-05-10T02:14:56;3.65;;;2.10;;
60999;SDS011;46879;45.658;11.814;2023-05-10T02:19:59;2.75;;;1.90;;
60999;SDS011;46879;45.658;11.814;2023-05-10T02:25:01;2.42;;;1.85;;
60999;SDS011;46879;45.658;11.814;2023-05-10T02:30:04;2.20;;;2.00;;
60999;SDS011;46879;45.658;11.814;2023-05-10T02:35:07;2.67;;;2.15;;
60999;SDS011;46879;45.658;11.814;2023-05-10T02:40:09;3.85;;;2.00;;
60999;SDS011;46879;45.658;11.814;2023-05-10T02:45:12;2.45;;;2.25;;
60999;SDS011;46879;45.658;11.814;2023-05-10T02:50:19;5.33;;;1.87;;
60999;SDS011;46879;45.658;11.814;2023-05-10T02:55:22;3.00;;;1.90;;
60999;SDS011;46879;45.658;11.814;2023-05-10T03:00:28;2.72;;;2.10;;
60999;SDS011;46879;45.658;11.814;2023-05-10T03:05:29;4.78;;;2.00;;
60999;SDS011;46879;45.658;11.814;2023-05-10T03:10:29;2.75;;;2.00;;
60999;SDS011;46879;45.658;11.814;2023-05-10T03:20:54;3.95;;;1.80;;
60999;SDS011;46879;45.658;11.814;2023-05-10T03:25:59;2.10;;;1.77;;
60999;SDS011;46879;45.658;11.814;2023-05-10T03:31:02;3.90;;;2.00;;
60999;SDS011;46879;45.658;11.814;2023-05-10T03:36:05;2.35;;;1.80;;
60999;SDS011;46879;45.658;11.814;2023-05-10T03:41:06;6.95;;;1.67;;
60999;SDS011;46879;45.658;11.814;2023-05-10T03:46:07;3.05;;;2.00;;
60999;SDS011;46879;45.658;11.814;2023-05-10T03:51:07;2.47;;;2.03;;
60999;SDS011;46879;45.658;11.814;2023-05-10T03:56:08;2.80;;;2.05;;
60999;SDS011;46879;45.658;11.814;2023-05-10T04:01:09;2.33;;;1.92;;
60999;SDS011;46879;45.658;11.814;2023-05-10T04:06:09;3.83;;;1.85;;
60999;SDS011;46879;45.658;11.814;2023-05-10T04:11:11;2.80;;;1.73;;
60999;SDS011;46879;45.658;11.814;2023-05-10T04:16:13;5.18;;;1.90;;
60999;SDS011;46879;45.658;11.814;2023-05-10T04:21:14;2.00;;;1.80;;
60999;SDS011;46879;45.658;11.814;2023-05-10T04:26:14;3.65;;;1.75;;
60999;SDS011;46879;45.658;11.814;2023-05-10T04:31:15;2.97;;;1.90;;
60999;SDS011;46879;45.658;11.814;2023-05-10T04:36:16;2.20;;;1.77;;
60999;SDS011;46879;45.658;11.814;2023-05-10T04:41:16;1.92;;;1.70;;
60999;SDS011;46879;45.658;11.814;2023-05-10T04:46:17;2.67;;;1.80;;
60999;SDS011;46879;45.658;11.814;2023-05-10T04:51:17;4.25;;;2.10;;
60999;SDS011;46879;45.658;11.814;2023-05-10T04:56:18;4.03;;;1.98;;
60999;SDS011;46879;45.658;11.814;2023-05-10T05:01:18;3.15;;;1.90;;
60999;SDS011;46879;45.658;11.814;2023-05-10T05:06:19;2.92;;;1.98;;
60999;SDS011;46879;45.658;11.814;2023-05-10T05:11:25;2.65;;;1.60;;
60999;SDS011;46879;45.658;11.814;2023-05-10T05:16:42;4.40;;;1.80;;
60999;SDS011;46879;45.658;11.814;2023-05-10T05:21:43;2.03;;;1.83;;
60999;SDS011;46879;45.658;11.814;2023-05-10T05:26:44;2.88;;;1.70;;
60999;SDS011;46879;45.658;11.814;2023-05-10T05:31:44;4.20;;;1.75;;
60999;SDS011;46879;45.658;11.814;2023-05-10T05:36:45;1.95;;;1.70;;
60999;SDS011;46879;45.658;11.814;2023-05-10T05:41:45;4.75;;;2.13;;
60999;SDS011;46879;45.658;11.814;2023-05-10T05:46:46;2.97;;;1.98;;
60999;SDS011;46879;45.658;11.814;2023-05-10T05:51:47;2.25;;;1.80;;
60999;SDS011;46879;45.658;11.814;2023-05-10T05:56:49;3.85;;;2.08;;
60999;SDS011;46879;45.658;11.814;2023-05-10T06:01:50;13.70;;;2.30;;
60999;SDS011;46879;45.658;11.814;2023-05-10T06:06:50;10.93;;;2.40;;
60999;SDS011;46879;45.658;11.814;2023-05-10T06:11:51;11.32;;;2.35;;
60999;SDS011;46879;45.658;11.814;2023-05-10T06:16:51;24.45;;;2.22;;
60999;SDS011;46879;45.658;11.814;2023-05-10T06:21:52;13.38;;;2.33;;
60999;SDS011;46879;45.658;11.814;2023-05-10T06:26:52;18.27;;;2.20;;
60999;SDS011;46879;45.658;11.814;2023-05-10T06:31:53;7.55;;;2.13;;
60999;SDS011;46879;45.658;11.814;2023-05-10T06:36:54;4.88;;;1.88;;
60999;SDS011;46879;45.658;11.814;2023-05-10T06:41:54;6.95;;;2.00;;
60999;SDS011;46879;45.658;11.814;2023-05-10T06:46:55;6.40;;;2.47;;
60999;SDS011;46879;45.658;11.814;2023-05-10T06:51:56;7.97;;;2.10;;
60999;SDS011;46879;45.658;11.814;2023-05-10T06:56:56;4.97;;;2.05;;
60999;SDS011;46879;45.658;11.814;2023-05-10T07:01:57;5.38;;;2.30;;
60999;SDS011;46879;45.658;11.814;2023-05-10T07:06:58;7.70;;;2.33;;
60999;SDS011;46879;45.658;11.814;2023-05-10T07:11:58;5.88;;;1.90;;
60999;SDS011;46879;45.658;11.814;2023-05-10T07:16:59;5.60;;;1.80;;
60999;SDS011;46879;45.658;11.814;2023-05-10T07:22:00;2.72;;;1.60;;
60999;SDS011;46879;45.658;11.814;2023-05-10T07:27:01;4.35;;;2.08;;
60999;SDS011;46879;45.658;11.814;2023-05-10T07:32:01;5.13;;;2.75;;
60999;SDS011;46879;45.658;11.814;2023-05-10T07:37:02;14.75;;;1.95;;
60999;SDS011;46879;45.658;11.814;2023-05-10T07:42:03;11.18;;;1.98;;
60999;SDS011;46879;45.658;11.814;2023-05-10T07:47:03;6.93;;;2.03;;
60999;SDS011;46879;45.658;11.814;2023-05-10T07:52:04;8.82;;;1.90;;
60999;SDS011;46879;45.658;11.814;2023-05-10T07:57:04;4.38;;;1.65;;
60999;SDS011;46879;45.658;11.814;2023-05-10T08:02:06;3.70;;;1.63;;
60999;SDS011;46879;45.658;11.814;2023-05-10T08:07:06;5.28;;;1.83;;
60999;SDS011;46879;45.658;11.814;2023-05-10T08:12:07;4.75;;;1.98;;
60999;SDS011;46879;45.658;11.814;2023-05-10T08:17:07;5.35;;;2.10;;
60999;SDS011;46879;45.658;11.814;2023-05-10T08:22:09;4.32;;;1.73;;
60999;SDS011;46879;45.658;11.814;2023-05-10T08:27:10;8.32;;;1.90;;
60999;SDS011;46879;45.658;11.814;2023-05-10T08:32:10;4.68;;;1.90;;
60999;SDS011;46879;45.658;11.814;2023-05-10T08:37:11;3.67;;;1.70;;
60999;SDS011;46879;45.658;11.814;2023-05-10T08:42:13;6.53;;;1.60;;
60999;SDS011;46879;45.658;11.814;2023-05-10T08:47:20;4.05;;;1.80;;
60999;SDS011;46879;45.658;11.814;2023-05-10T08:52:21;2.25;;;1.70;;
60999;SDS011;46879;45.658;11.814;2023-05-10T08:57:25;4.75;;;1.80;;
60999;SDS011;46879;45.658;11.814;2023-05-10T09:02:25;3.05;;;1.83;;
60999;SDS011;46879;45.658;11.814;2023-05-10T09:07:26;5.82;;;2.00;;
60999;SDS011;46879;45.658;11.814;2023-05-10T09:12:27;3.20;;;1.88;;
60999;SDS011;46879;45.658;11.814;2023-05-10T09:17:28;2.80;;;1.60;;
60999;SDS011;46879;45.658;11.814;2023-05-10T09:22:30;2.95;;;1.70;;
60999;SDS011;46879;45.658;11.814;2023-05-10T09:27:31;2.92;;;2.05;;
60999;SDS011;46879;45.658;11.814;2023-05-10T09:32:35;2.85;;;1.88;;
60999;SDS011;46879;45.658;11.814;2023-05-10T09:37:41;5.55;;;1.85;;
60999;SDS011;46879;45.658;11.814;2023-05-10T09:42:55;2.83;;;1.83;;
60999;SDS011;46879;45.658;11.814;2023-05-10T09:48:05;3.78;;;1.85;;
60999;SDS011;46879;45.658;11.814;2023-05-10T09:53:06;4.03;;;2.25;;
60999;SDS011;46879;45.658;11.814;2023-05-10T09:58:07;4.80;;;2.03;;
60999;SDS011;46879;45.658;11.814;2023-05-10T10:03:14;3.20;;;1.92;;
60999;SDS011;46879;45.658;11.814;2023-05-10T10:08:17;4.60;;;1.85;;
60999;SDS011;46879;45.658;11.814;2023-05-10T10:13:17;5.05;;;2.08;;
60999;SDS011;46879;45.658;11.814;2023-05-10T10:18:18;1.63;;;1.48;;
60999;SDS011;46879;45.658;11.814;2023-05-10T10:23:23;1.63;;;1.52;;
60999;SDS011;46879;45.658;11.814;2023-05-10T10:28:26;2.95;;;1.50;;
60999;SDS011;46879;45.658;11.814;2023-05-10T10:39:10;3.17;;;1.77;;
60999;SDS011;46879;45.658;11.814;2023-05-10T10:44:24;4.30;;;1.90;;
60999;SDS011;46879;45.658;11.814;2023-05-10T10:54:40;2.55;;;1.80;;
60999;SDS011;46879;45.658;11.814;2023-05-10T10:59:42;1.80;;;1.70;;
60999;SDS011;46879;45.658;11.814;2023-05-10T11:04:46;6.57;;;1.85;;
60999;SDS011;46879;45.658;11.814;2023-05-10T11:09:47;2.30;;;1.40;;
60999;SDS011;46879;45.658;11.814;2023-05-10T11:14:50;2.13;;;1.73;;
60999;SDS011;46879;45.658;11.814;2023-05-10T11:20:10;1.73;;;1.60;;
60999;SDS011;46879;45.658;11.814;2023-05-10T11:25:14;3.72;;;1.85;;
60999;SDS011;46879;45.658;11.814;2023-05-10T11:30:15;5.85;;;1.70;;
60999;SDS011;46879;45.658;11.814;2023-05-10T11:35:16;2.08;;;1.63;;
60999;SDS011;46879;45.658;11.814;2023-05-10T11:40:16;2.50;;;1.88;;
60999;SDS011;46879;45.658;11.814;2023-05-10T11:45:17;2.42;;;1.75;;
60999;SDS011;46879;45.658;11.814;2023-05-10T11:50:18;4.20;;;2.05;;
60999;SDS011;46879;45.658;11.814;2023-05-10T11:55:18;5.18;;;1.50;;
60999;SDS011;46879;45.658;11.814;2023-05-10T12:00:19;2.63;;;1.90;;
60999;SDS011;46879;45.658;11.814;2023-05-10T12:05:20;9.23;;;1.95;;
60999;SDS011;46879;45.658;11.814;2023-05-10T12:10:25;3.53;;;2.22;;
60999;SDS011;46879;45.658;11.814;2023-05-10T12:15:27;2.95;;;1.65;;
60999;SDS011;46879;45.658;11.814;2023-05-10T12:20:27;3.58;;;1.65;;
60999;SDS011;46879;45.658;11.814;2023-05-10T12:25:35;6.10;;;2.05;;
60999;SDS011;46879;45.658;11.814;2023-05-10T12:30:38;9.57;;;2.10;;
60999;SDS011;46879;45.658;11.814;2023-05-10T12:35:46;4.13;;;1.85;;
60999;SDS011;46879;45.658;11.814;2023-05-10T12:40:49;4.78;;;1.80;;
60999;SDS011;46879;45.658;11.814;2023-05-10T12:45:49;2.63;;;1.52;;
60999;SDS011;46879;45.658;11.814;2023-05-10T12:50:50;8.30;;;2.13;;
60999;SDS011;46879;45.658;11.814;2023-05-10T12:55:51;3.60;;;1.95;;
60999;SDS011;46879;45.658;11.814;2023-05-10T13:00:51;2.97;;;1.90;;
60999;SDS011;46879;45.658;11.814;2023-05-10T13:05:52;3.47;;;1.70;;
60999;SDS011;46879;45.658;11.814;2023-05-10T13:10:53;2.33;;;1.60;;
60999;SDS011;46879;45.658;11.814;2023-05-10T13:15:53;8.40;;;2.17;;
60999;SDS011;46879;45.658;11.814;2023-05-10T13:20:54;2.08;;;1.88;;
60999;SDS011;46879;45.658;11.814;2023-05-10T13:25:55;6.30;;;2.30;;
60999;SDS011;46879;45.658;11.814;2023-05-10T13:30:56;12.27;;;2.30;;
60999;SDS011;46879;45.658;11.814;2023-05-10T13:35:56;3.97;;;2.15;;
60999;SDS011;46879;45.658;11.814;2023-05-10T13:40:57;5.18;;;2.58;;
60999;SDS011;46879;45.658;11.814;2023-05-10T13:45:58;7.93;;;2.50;;
60999;SDS011;46879;45.658;11.814;2023-05-10T13:50:58;6.80;;;2.10;;
60999;SDS011;46879;45.658;11.814;2023-05-10T13:55:59;4.80;;;2.05;;
60999;SDS011;46879;45.658;11.814;2023-05-10T14:00:59;4.28;;;2.25;;
60999;SDS011;46879;45.658;11.814;2023-05-10T14:06:00;3.78;;;1.85;;
60999;SDS011;46879;45.658;11.814;2023-05-10T14:11:01;2.85;;;2.10;;
60999;SDS011;46879;45.658;11.814;2023-05-10T14:16:01;3.15;;;2.30;;
60999;SDS011;46879;45.658;11.814;2023-05-10T14:21:02;5.15;;;2.85;;
60999;SDS011;46879;45.658;11.814;2023-05-10T14:26:03;4.25;;;2.17;;
60999;SDS011;46879;45.658;11.814;2023-05-10T14:31:04;4.97;;;2.45;;
60999;SDS011;46879;45.658;11.814;2023-05-10T14:36:05;4.43;;;2.50;;
60999;SDS011;46879;45.658;11.814;2023-05-10T14:41:07;7.10;;;2.58;;
60999;SDS011;46879;45.658;11.814;2023-05-10T14:46:07;8.35;;;2.38;;
60999;SDS011;46879;45.658;11.814;2023-05-10T14:51:08;4.18;;;2.17;;
60999;SDS011;46879;45.658;11.814;2023-05-10T14:56:09;7.75;;;2.70;;
60999;SDS011;46879;45.658;11.814;2023-05-10T15:01:09;6.82;;;3.28;;
60999;SDS011;46879;45.658;11.814;2023-05-10T15:06:10;4.10;;;2.45;;
60999;SDS011;46879;45.658;11.814;2023-05-10T15:11:13;7.18;;;2.53;;
60999;SDS011;46879;45.658;11.814;2023-05-10T15:16:14;3.05;;;2.30;;
60999;SDS011;46879;45.658;11.814;2023-05-10T15:21:15;3.78;;;2.22;;
60999;SDS011;46879;45.658;11.814;2023-05-10T15:26:15;4.00;;;2.33;;
60999;SDS011;46879;45.658;11.814;2023-05-10T15:31:16;2.88;;;2.30;;
60999;SDS011;46879;45.658;11.814;2023-05-10T15:36:17;2.33;;;2.08;;
60999;SDS011;46879;45.658;11.814;2023-05-10T15:41:17;3.70;;;2.42;;
60999;SDS011;46879;45.658;11.814;2023-05-10T15:46:18;2.33;;;2.10;;
60999;SDS011;46879;45.658;11.814;2023-05-10T15:51:19;3.05;;;2.17;;
60999;SDS011;46879;45.658;11.814;2023-05-10T15:56:19;3.15;;;2.30;;
60999;SDS011;46879;45.658;11.814;2023-05-10T16:01:20;4.30;;;2.42;;
60999;SDS011;46879;45.658;11.814;2023-05-10T16:06:20;4.82;;;2.45;;
60999;SDS011;46879;45.658;11.814;2023-05-10T16:11:21;3.35;;;2.17;;
60999;SDS011;46879;45.658;11.814;2023-05-10T16:16:22;2.90;;;2.42;;
60999;SDS011;46879;45.658;11.814;2023-05-10T16:21:22;2.65;;;2.30;;
60999;SDS011;46879;45.658;11.814;2023-05-10T16:26:23;2.83;;;2.30;;
60999;SDS011;46879;45.658;11.814;2023-05-10T16:31:24;3.35;;;2.53;;
60999;SDS011;46879;45.658;11.814;2023-05-10T16:36:24;2.25;;;2.05;;
60999;SDS011;46879;45.658;11.814;2023-05-10T16:41:25;2.75;;;2.00;;
60999;SDS011;46879;45.658;11.814;2023-05-10T16:46:25;2.70;;;2.28;;
60999;SDS011;46879;45.658;11.814;2023-05-10T16:51:26;3.42;;;2.20;;
60999;SDS011;46879;45.658;11.814;2023-05-10T16:56:28;4.57;;;2.50;;
60999;SDS011;46879;45.658;11.814;2023-05-10T17:01:28;4.45;;;2.50;;
60999;SDS011;46879;45.658;11.814;2023-05-10T17:06:29;5.15;;;2.72;;
60999;SDS011;46879;45.658;11.814;2023-05-10T17:11:30;5.43;;;3.03;;
60999;SDS011;46879;45.658;11.814;2023-05-10T17:16:31;3.30;;;2.60;;
60999;SDS011;46879;45.658;11.814;2023-05-10T17:21:32;3.10;;;2.80;;
60999;SDS011;46879;45.658;11.814;2023-05-10T17:26:32;4.65;;;2.95;;
60999;SDS011;46879;45.658;11.814;2023-05-10T17:31:33;5.93;;;2.65;;
60999;SDS011;46879;45.658;11.814;2023-05-10T17:36:34;4.57;;;2.75;;
60999;SDS011;46879;45.658;11.814;2023-05-10T17:41:35;4.40;;;2.85;;
60999;SDS011;46879;45.658;11.814;2023-05-10T17:46:35;7.03;;;3.08;;
60999;SDS011;46879;45.658;11.814;2023-05-10T17:51:38;8.93;;;3.78;;
60999;SDS011;46879;45.658;11.814;2023-05-10T17:56:40;5.38;;;3.28;;
60999;SDS011;46879;45.658;11.814;2023-05-10T18:01:41;7.85;;;3.20;;
60999;SDS011;46879;45.658;11.814;2023-05-10T18:06:41;9.15;;;3.25;;
60999;SDS011;46879;45.658;11.814;2023-05-10T18:11:42;6.30;;;3.30;;
60999;SDS011;46879;45.658;11.814;2023-05-10T18:16:42;7.97;;;3.17;;
60999;SDS011;46879;45.658;11.814;2023-05-10T18:21:43;4.47;;;3.35;;
60999;SDS011;46879;45.658;11.814;2023-05-10T18:26:44;8.73;;;3.42;;
60999;SDS011;46879;45.658;11.814;2023-05-10T18:31:45;13.85;;;4.13;;
60999;SDS011;46879;45.658;11.814;2023-05-10T18:36:46;7.82;;;4.40;;
60999;SDS011;46879;45.658;11.814;2023-05-10T18:41:46;9.48;;;4.50;;
60999;SDS011;46879;45.658;11.814;2023-05-10T18:46:48;10.25;;;4.63;;
60999;SDS011;46879;45.658;11.814;2023-05-10T18:51:52;8.98;;;4.35;;
60999;SDS011;46879;45.658;11.814;2023-05-10T18:56:52;7.57;;;4.00;;
60999;SDS011;46879;45.658;11.814;2023-05-10T19:01:53;7.25;;;4.13;;
60999;SDS011;46879;45.658;11.814;2023-05-10T19:06:54;9.73;;;4.50;;
60999;SDS011;46879;45.658;11.814;2023-05-10T19:11:54;7.57;;;4.43;;
60999;SDS011;46879;45.658;11.814;2023-05-10T19:16:55;6.60;;;3.78;;
60999;SDS011;46879;45.658;11.814;2023-05-10T19:21:56;5.45;;;3.63;;
60999;SDS011;46879;45.658;11.814;2023-05-10T19:26:56;4.90;;;3.70;;
60999;SDS011;46879;45.658;11.814;2023-05-10T19:31:57;7.85;;;3.95;;
60999;SDS011;46879;45.658;11.814;2023-05-10T19:36:57;6.38;;;3.90;;
60999;SDS011;46879;45.658;11.814;2023-05-10T19:47:08;5.40;;;3.53;;
60999;SDS011;46879;45.658;11.814;2023-05-10T19:52:10;6.93;;;3.75;;
60999;SDS011;46879;45.658;11.814;2023-05-10T19:57:11;5.22;;;3.40;;
60999;SDS011;46879;45.658;11.814;2023-05-10T20:02:12;4.97;;;3.58;;
60999;SDS011;46879;45.658;11.814;2023-05-10T20:07:12;7.28;;;4.50;;
60999;SDS011;46879;45.658;11.814;2023-05-10T20:12:13;6.85;;;3.72;;
60999;SDS011;46879;45.658;11.814;2023-05-10T20:17:14;7.38;;;3.88;;
60999;SDS011;46879;45.658;11.814;2023-05-10T20:22:14;4.85;;;3.58;;
60999;SDS011;46879;45.658;11.814;2023-05-10T20:27:15;5.68;;;3.45;;
60999;SDS011;46879;45.658;11.814;2023-05-10T20:32:16;7.07;;;3.90;;
60999;SDS011;46879;45.658;11.814;2023-05-10T20:37:16;4.75;;;3.17;;
60999;SDS011;46879;45.658;11.814;2023-05-10T20:42:17;4.03;;;3.38;;
60999;SDS011;46879;45.658;11.814;2023-05-10T20:47:17;6.88;;;3.97;;
60999;SDS011;46879;45.658;11.814;2023-05-10T20:52:18;6.38;;;3.40;;
60999;SDS011;46879;45.658;11.814;2023-05-10T20:57:19;6.03;;;3.58;;
60999;SDS011;46879;45.658;11.814;2023-05-10T21:02:19;11.32;;;3.60;;
60999;SDS011;46879;45.658;11.814;2023-05-10T21:07:20;5.57;;;3.28;;
60999;SDS011;46879;45.658;11.814;2023-05-10T21:12:20;7.90;;;3.20;;
60999;SDS011;46879;45.658;11.814;2023-05-10T21:17:21;10.23;;;3.33;;
60999;SDS011;46879;45.658;11.814;2023-05-10T21:22:22;4.32;;;2.97;;
60999;SDS011;46879;45.658;11.814;2023-05-10T21:27:22;7.22;;;3.00;;
60999;SDS011;46879;45.658;11.814;2023-05-10T21:32:23;5.28;;;3.00;;
60999;SDS011;46879;45.658;11.814;2023-05-10T21:37:23;7.50;;;2.90;;
60999;SDS011;46879;45.658;11.814;2023-05-10T21:42:24;4.13;;;2.80;;
60999;SDS011;46879;45.658;11.814;2023-05-10T21:47:25;4.03;;;2.50;;
60999;SDS011;46879;45.658;11.814;2023-05-10T21:52:25;3.03;;;2.65;;
60999;SDS011;46879;45.658;11.814;2023-05-10T21:57:26;3.60;;;2.40;;
60999;SDS011;46879;45.658;11.814;2023-05-10T22:02:27;6.78;;;2.30;;
60999;SDS011;46879;45.658;11.814;2023-05-10T22:07:29;2.40;;;2.10;;
60999;SDS011;46879;45.658;11.814;2023-05-10T22:12:30;3.70;;;2.40;;
60999;SDS011;46879;45.658;11.814;2023-05-10T22:17:31;3.95;;;1.85;;
60999;SDS011;46879;45.658;11.814;2023-05-10T22:22:31;1.80;;;1.70;;
60999;SDS011;46879;45.658;11.814;2023-05-10T22:27:32;2.38;;;1.90;;
60999;SDS011;46879;45.658;11.814;2023-05-10T22:32:33;1.55;;;1.45;;
60999;SDS011;46879;45.658;11.814;2023-05-10T22:37:33;4.10;;;1.50;;
60999;SDS011;46879;45.658;11.814;2023-05-10T22:42:34;1.73;;;1.63;;
60999;SDS011;46879;45.658;11.814;2023-05-10T22:47:34;2.17;;;1.60;;
60999;SDS011;46879;45.658;11.814;2023-05-10T22:52:35;3.22;;;1.38;;
60999;SDS011;46879;45.658;11.814;2023-05-10T22:57:37;3.28;;;1.30;;
60999;SDS011;46879;45.658;11.814;2023-05-10T23:02:38;1.45;;;1.35;;
60999;SDS011;46879;45.658;11.814;2023-05-10T23:07:39;1.75;;;1.48;;
60999;SDS011;46879;45.658;11.814;2023-05-10T23:12:39;3.20;;;1.52;;
60999;SDS011;46879;45.658;11.814;2023-05-10T23:17:40;2.60;;;1.55;;
60999;SDS011;46879;45.658;11.814;2023-05-10T23:22:41;1.33;;;1.20;;
60999;SDS011;46879;45.658;11.814;2023-05-10T23:27:41;1.20;;;1.10;;
60999;SDS011;46879;45.658;11.814;2023-05-10T23:32:42;1.88;;;1.20;;
60999;SDS011;46879;45.658;11.814;2023-05-10T23:37:42;1.77;;;1.17;;
60999;SDS011;46879;45.658;11.814;2023-05-10T23:42:43;1.67;;;1.38;;
60999;SDS011;46879;45.658;11.814;2023-05-10T23:47:43;1.42;;;1.10;;
60999;SDS011;46879;45.658;11.814;2023-05-10T23:52:44;2.25;;;1.30;;
60999;SDS011;46879;45.658;11.814;2023-05-10T23:57:45;1.63;;;1.08;;
